Time;durP1;ratioP1;P1;durP2;ratioP2;P2;SDS_P1;SDS_P2;PMS_P1;PMS_P2;Temp;Humidity;BMP_temperature;BMP_pressure;BME280_temperature;BME280_humidity;BME280_pressure;Samples;Min_cycle;Max_cycle;Signal;HPM_P1;HPM_P2
2021/06/22 00:01:58;;;;;;;8.13;3.08;;;12.80;99.90;;;;;;4810033;29;20045;-84
2021/06/22 00:04:24;;;;;;;7.57;3.35;;;12.70;99.90;;;;;;4819844;29;20096;-84
2021/06/22 00:06:51;;;;;;;8.95;3.30;;;12.70;99.90;;;;;;4825798;29;20058;-84
2021/06/22 00:09:17;;;;;;;9.63;2.85;;;12.70;99.90;;;;;;4819601;29;20054;-84
2021/06/22 00:11:44;;;;;;;8.32;3.72;;;12.70;99.90;;;;;;4829750;29;20050;-84
2021/06/22 00:14:11;;;;;;;9.98;3.95;;;12.70;99.90;;;;;;4818856;29;20077;-83
2021/06/22 00:16:37;;;;;;;8.10;3.78;;;12.70;99.90;;;;;;4816165;29;20427;-83
2021/06/22 00:19:04;;;;;;;8.05;4.10;;;12.70;99.90;;;;;;4805870;29;20058;-84
2021/06/22 00:21:30;;;;;;;9.30;3.33;;;12.80;99.90;;;;;;4818290;29;20057;-84
2021/06/22 00:23:57;;;;;;;13.57;5.75;;;12.80;99.90;;;;;;4824545;29;20045;-85
2021/06/22 00:26:24;;;;;;;10.93;4.15;;;12.80;99.90;;;;;;4820105;29;20042;-84
2021/06/22 00:28:50;;;;;;;9.10;4.18;;;12.80;99.90;;;;;;4800829;29;20593;-85
2021/06/22 00:31:18;;;;;;;10.40;4.45;;;12.70;99.90;;;;;;4801103;29;20050;-76
2021/06/22 00:33:45;;;;;;;9.15;4.60;;;12.80;99.90;;;;;;4813088;29;20403;-76
2021/06/22 00:36:12;;;;;;;11.80;3.35;;;12.80;99.90;;;;;;4826769;29;20182;-75
2021/06/22 00:38:39;;;;;;;15.45;10.45;;;12.70;99.90;;;;;;4816461;29;20054;-76
2021/06/22 00:41:07;;;;;;;23.08;15.05;;;12.70;99.90;;;;;;4808517;29;20046;-75
2021/06/22 00:43:38;;;;;;;29.58;16.25;;;12.70;99.90;;;;;;4815077;29;20054;-75
2021/06/22 00:46:05;;;;;;;30.02;17.00;;;12.60;99.90;;;;;;4783910;29;20046;-75
2021/06/22 00:48:32;;;;;;;22.50;13.20;;;12.60;99.90;;;;;;4810149;29;20046;-75
2021/06/22 00:50:59;;;;;;;18.75;10.70;;;12.60;99.90;;;;;;4792343;29;20053;-75
2021/06/22 00:53:27;;;;;;;15.15;6.57;;;12.50;99.90;;;;;;4818657;29;20038;-76
2021/06/22 00:55:55;;;;;;;14.98;5.47;;;12.50;99.90;;;;;;4809703;29;20397;-76
2021/06/22 00:58:37;;;;;;;8.63;4.97;;;12.50;99.90;;;;;;4789204;29;20045;-76
2021/06/22 01:01:05;;;;;;;10.40;4.97;;;12.40;99.90;;;;;;4811681;29;20077;-76
2021/06/22 01:03:32;;;;;;;11.25;4.70;;;12.40;99.90;;;;;;4783565;29;20057;-81
2021/06/22 01:06:04;;;;;;;9.55;5.05;;;12.40;99.90;;;;;;4811617;29;20046;-81
2021/06/22 01:08:33;;;;;;;12.40;5.32;;;12.40;99.90;;;;;;4822064;29;20058;-81
2021/06/22 01:11:00;;;;;;;10.10;4.70;;;12.40;99.90;;;;;;4826838;29;20049;-81
2021/06/22 01:13:27;;;;;;;8.90;4.93;;;12.30;99.90;;;;;;4817085;29;20046;-76
2021/06/22 01:15:53;;;;;;;6.70;3.92;;;12.30;99.90;;;;;;4800301;29;20043;-76
2021/06/22 01:18:22;;;;;;;9.38;4.55;;;12.30;99.90;;;;;;4815602;29;20049;-76
2021/06/22 01:21:07;;;;;;;13.13;5.60;;;12.30;99.90;;;;;;4819482;29;20037;-76
2021/06/22 01:23:41;;;;;;;10.70;5.30;;;12.30;99.90;;;;;;4820725;29;20426;-81
2021/06/22 01:26:10;;;;;;;13.23;5.55;;;12.30;99.90;;;;;;4803242;29;20053;-76
2021/06/22 01:28:37;;;;;;;12.23;5.90;;;12.30;99.90;;;;;;4782637;29;20053;-76
2021/06/22 01:31:14;;;;;;;12.40;5.07;;;12.30;99.90;;;;;;4800956;29;20049;-76
2021/06/22 01:33:47;;;;;;;6.18;4.22;;;12.30;99.90;;;;;;4789052;29;20034;-75
2021/06/22 01:36:19;;;;;;;14.55;5.07;;;12.20;99.90;;;;;;4795563;29;20057;-75
2021/06/22 01:38:45;;;;;;;8.85;4.55;;;12.20;99.90;;;;;;4783705;29;20054;-75
2021/06/22 01:41:15;;;;;;;13.55;5.47;;;12.20;99.90;;;;;;4819021;29;20042;-81
2021/06/22 01:43:43;;;;;;;11.95;5.95;;;12.20;99.90;;;;;;4815874;29;20803;-76
2021/06/22 01:46:10;;;;;;;9.25;5.25;;;12.20;99.90;;;;;;4794679;29;20042;-76
2021/06/22 01:48:37;;;;;;;15.18;6.70;;;12.10;99.90;;;;;;4809687;29;20046;-75
2021/06/22 01:51:04;;;;;;;8.75;5.50;;;12.10;99.90;;;;;;4808469;29;20041;-76
2021/06/22 01:53:30;;;;;;;8.77;5.57;;;12.10;99.90;;;;;;4814223;29;20042;-76
2021/06/22 01:56:10;;;;;;;11.88;5.15;;;12.00;99.90;;;;;;4820192;29;20052;-76
2021/06/22 01:58:39;;;;;;;9.40;5.15;;;12.00;99.90;;;;;;4824432;29;20043;-76
2021/06/22 02:01:23;;;;;;;12.30;5.15;;;12.00;99.90;;;;;;4816748;29;20073;-76
2021/06/22 02:04:16;;;;;;;10.70;4.63;;;12.00;99.90;;;;;;4811060;29;20959;-76
2021/06/22 02:06:43;;;;;;;12.35;5.75;;;12.00;99.90;;;;;;4826940;29;20061;-76
2021/06/22 02:09:29;;;;;;;9.88;4.40;;;12.00;99.90;;;;;;4801764;29;20042;-76
2021/06/22 02:11:58;;;;;;;10.07;5.05;;;12.00;99.90;;;;;;4803175;29;20065;-76
2021/06/22 02:14:26;;;;;;;10.15;5.35;;;12.00;99.90;;;;;;4776660;29;20043;-76
2021/06/22 02:16:53;;;;;;;9.02;4.20;;;12.00;99.90;;;;;;4774450;29;20050;-76
2021/06/22 02:19:20;;;;;;;9.57;3.70;;;12.00;99.90;;;;;;4808638;29;20086;-76
2021/06/22 02:21:47;;;;;;;6.72;4.05;;;12.00;99.90;;;;;;4803385;29;20058;-76
2021/06/22 02:24:18;;;;;;;7.57;4.50;;;12.00;99.90;;;;;;4801786;29;20479;-76
2021/06/22 02:26:45;;;;;;;7.97;4.35;;;12.00;99.90;;;;;;4791952;29;20062;-76
2021/06/22 02:29:12;;;;;;;8.77;4.45;;;12.00;99.90;;;;;;4799456;29;20085;-76
2021/06/22 02:31:39;;;;;;;8.48;4.20;;;12.00;99.90;;;;;;4803016;29;20035;-75
2021/06/22 02:34:06;;;;;;;13.18;6.00;;;12.00;99.90;;;;;;4826460;29;20042;-76
2021/06/22 02:36:35;;;;;;;12.27;5.18;;;12.00;99.90;;;;;;4803493;29;20039;-75
2021/06/22 02:39:04;;;;;;;7.68;4.95;;;12.00;99.90;;;;;;4807383;29;20041;-81
2021/06/22 02:41:40;;;;;;;9.45;5.53;;;12.00;99.90;;;;;;4830181;29;20057;-82
2021/06/22 02:44:07;;;;;;;9.40;5.05;;;11.90;99.90;;;;;;4800625;29;20905;-81
2021/06/22 02:46:40;;;;;;;12.07;5.82;;;11.90;99.90;;;;;;4815766;29;20034;-81
2021/06/22 02:49:07;;;;;;;9.77;5.60;;;11.90;99.90;;;;;;4818212;29;20053;-82
2021/06/22 02:51:38;;;;;;;9.52;5.57;;;11.90;99.90;;;;;;4820209;29;20485;-81
2021/06/22 02:54:05;;;;;;;9.68;4.97;;;11.80;99.90;;;;;;4820759;29;20034;-76
2021/06/22 02:56:32;;;;;;;7.68;4.72;;;11.80;99.90;;;;;;4791336;29;20039;-76
2021/06/22 02:58:59;;;;;;;9.93;4.78;;;11.80;99.90;;;;;;4798532;29;20070;-76
2021/06/22 03:01:26;;;;;;;7.25;4.38;;;11.80;99.90;;;;;;4806149;29;20042;-81
2021/06/22 03:03:53;;;;;;;9.55;5.80;;;11.80;99.90;;;;;;4802294;29;20046;-81
2021/06/22 03:06:24;;;;;;;12.95;5.65;;;11.70;99.90;;;;;;4820696;29;20057;-81
2021/06/22 03:09:13;;;;;;;9.80;5.88;;;11.70;99.90;;;;;;4784313;29;20154;-81
2021/06/22 03:11:45;;;;;;;10.27;5.50;;;11.70;99.90;;;;;;4802749;29;20412;-81
2021/06/22 03:14:18;;;;;;;9.43;5.38;;;11.70;99.90;;;;;;4797374;29;20038;-81
2021/06/22 03:17:07;;;;;;;11.82;6.90;;;11.70;99.90;;;;;;4819277;29;20054;-81
2021/06/22 03:19:38;;;;;;;12.85;6.30;;;11.70;99.90;;;;;;4792839;29;20042;-76
2021/06/22 03:22:05;;;;;;;11.30;5.60;;;11.70;99.90;;;;;;4799091;29;20069;-76
2021/06/22 03:24:33;;;;;;;13.75;5.95;;;11.70;99.90;;;;;;4823486;29;20045;-76
2021/06/22 03:27:01;;;;;;;10.73;5.70;;;11.70;99.90;;;;;;4808478;29;20391;-77
2021/06/22 03:29:36;;;;;;;8.70;5.30;;;11.60;99.90;;;;;;4810881;29;20062;-76
2021/06/22 03:32:10;;;;;;;10.85;5.97;;;11.60;99.90;;;;;;4791052;29;20479;-76
2021/06/22 03:34:36;;;;;;;11.20;6.30;;;11.60;99.90;;;;;;4808809;29;20046;-76
2021/06/22 03:37:04;;;;;;;12.38;7.32;;;11.60;99.90;;;;;;4791228;29;20038;-76
2021/06/22 03:39:38;;;;;;;9.15;5.03;;;11.60;99.90;;;;;;4785847;29;20061;-76
2021/06/22 03:42:07;;;;;;;14.45;6.35;;;11.60;99.90;;;;;;4809406;29;20391;-76
2021/06/22 03:44:35;;;;;;;13.15;6.95;;;11.60;99.90;;;;;;4803017;29;20049;-76
2021/06/22 03:47:07;;;;;;;11.80;5.78;;;11.60;99.90;;;;;;4807287;29;20058;-76
2021/06/22 03:49:34;;;;;;;11.20;6.00;;;11.60;99.90;;;;;;4812160;29;20062;-81
2021/06/22 03:52:02;;;;;;;11.63;7.20;;;11.60;99.90;;;;;;4822941;29;20043;-81
2021/06/22 03:54:32;;;;;;;9.70;5.10;;;11.60;99.90;;;;;;4827918;29;20039;-81
2021/06/22 03:56:59;;;;;;;10.77;6.70;;;11.60;99.90;;;;;;4807846;29;20031;-83
2021/06/22 03:59:36;;;;;;;12.73;6.05;;;11.70;99.90;;;;;;4809138;29;20088;-76
2021/06/22 04:02:02;;;;;;;10.05;6.07;;;11.60;99.90;;;;;;4806917;29;20050;-76
2021/06/22 04:04:29;;;;;;;10.82;5.63;;;11.60;99.90;;;;;;4809953;29;20605;-76
2021/06/22 04:07:14;;;;;;;9.85;5.30;;;11.60;99.90;;;;;;4804550;29;20601;-76
2021/06/22 04:09:41;;;;;;;10.63;6.10;;;11.60;99.90;;;;;;4807751;29;20384;-76
2021/06/22 04:12:08;;;;;;;8.30;4.35;;;11.70;99.90;;;;;;4801514;29;20050;-76
2021/06/22 04:14:35;;;;;;;14.40;5.63;;;11.60;99.90;;;;;;4806832;29;20039;-76
2021/06/22 04:17:02;;;;;;;10.90;5.68;;;11.70;99.90;;;;;;4788021;29;20082;-76
2021/06/22 04:19:29;;;;;;;13.07;6.22;;;11.70;99.90;;;;;;4818377;29;20059;-76
2021/06/22 04:21:59;;;;;;;8.63;4.88;;;11.70;99.90;;;;;;4809655;29;20046;-76
2021/06/22 04:24:37;;;;;;;11.38;6.07;;;11.70;99.90;;;;;;4816564;29;20051;-76
2021/06/22 04:27:05;;;;;;;12.35;5.88;;;11.70;99.90;;;;;;4810499;29;20055;-82
2021/06/22 04:29:31;;;;;;;10.20;4.97;;;11.80;99.90;;;;;;4811449;29;20413;-82
2021/06/22 04:31:58;;;;;;;14.48;7.07;;;11.80;99.90;;;;;;4830036;29;20042;-81
2021/06/22 04:34:25;;;;;;;11.02;4.65;;;11.80;99.90;;;;;;4812389;29;20842;-81
2021/06/22 04:36:52;;;;;;;12.05;6.10;;;11.80;99.90;;;;;;4802866;29;20047;-81
2021/06/22 04:39:19;;;;;;;9.88;6.22;;;11.90;99.90;;;;;;4837685;29;20035;-81
2021/06/22 04:41:45;;;;;;;10.93;6.10;;;11.90;99.90;;;;;;4818315;29;20042;-76
2021/06/22 04:44:12;;;;;;;12.68;6.60;;;12.00;99.90;;;;;;4809169;29;20046;-76
2021/06/22 04:46:39;;;;;;;11.23;6.35;;;12.00;99.90;;;;;;4791134;29;20046;-76
2021/06/22 04:49:06;;;;;;;10.75;6.82;;;12.00;99.90;;;;;;4797336;29;20525;-76
2021/06/22 04:51:32;;;;;;;11.10;6.93;;;12.10;99.90;;;;;;4805699;29;20042;-76
2021/06/22 04:53:59;;;;;;;14.68;7.50;;;12.10;99.90;;;;;;4804905;29;20425;-76
2021/06/22 04:56:26;;;;;;;11.05;7.13;;;12.20;99.90;;;;;;4784639;29;20046;-76
2021/06/22 04:58:56;;;;;;;10.77;7.47;;;12.30;99.90;;;;;;4792431;29;20053;-77
2021/06/22 05:01:24;;;;;;;12.32;7.78;;;12.30;99.90;;;;;;4805877;29;20054;-76
2021/06/22 05:03:51;;;;;;;14.27;7.80;;;12.50;99.90;;;;;;4804631;29;20498;-76
2021/06/22 05:06:18;;;;;;;13.68;8.38;;;12.50;99.90;;;;;;4802500;29;20057;-76
2021/06/22 05:08:44;;;;;;;11.35;7.18;;;12.70;99.90;;;;;;4802527;29;20054;-76
2021/06/22 05:11:12;;;;;;;15.25;8.35;;;12.80;99.90;;;;;;4804819;29;20050;-76
2021/06/22 05:13:40;;;;;;;21.92;9.15;;;12.90;99.90;;;;;;4804832;29;20042;-76
2021/06/22 05:16:07;;;;;;;17.73;7.97;;;13.00;99.90;;;;;;4803143;29;20100;-76
2021/06/22 05:18:34;;;;;;;16.35;8.52;;;13.10;99.90;;;;;;4805290;29;20039;-76
2021/06/22 05:21:01;;;;;;;13.90;7.90;;;13.30;99.90;;;;;;4806937;29;20308;-77
2021/06/22 05:23:27;;;;;;;12.07;8.13;;;13.40;99.90;;;;;;4816524;29;20502;-76
2021/06/22 05:25:54;;;;;;;13.82;7.07;;;13.60;99.90;;;;;;4801312;29;20105;-76
2021/06/22 05:28:20;;;;;;;13.93;8.30;;;13.80;99.90;;;;;;4791812;29;20047;-77
2021/06/22 05:30:47;;;;;;;11.38;7.63;;;13.90;99.90;;;;;;4809310;29;20058;-76
2021/06/22 05:33:13;;;;;;;12.73;7.25;;;14.10;99.90;;;;;;4792362;29;20061;-76
2021/06/22 05:35:40;;;;;;;15.48;7.63;;;14.40;99.90;;;;;;4824713;29;20043;-77
2021/06/22 05:38:07;;;;;;;10.27;7.45;;;14.50;99.90;;;;;;4808436;29;20049;-76
2021/06/22 05:40:33;;;;;;;10.32;6.85;;;14.60;99.90;;;;;;4803872;29;20058;-76
2021/06/22 05:43:00;;;;;;;12.40;7.03;;;14.70;99.90;;;;;;4809908;29;20053;-85
2021/06/22 05:45:26;;;;;;;11.35;6.93;;;14.80;99.90;;;;;;4785868;29;20042;-75
2021/06/22 05:47:53;;;;;;;10.52;5.85;;;14.90;99.90;;;;;;4793466;29;20529;-74
2021/06/22 05:50:20;;;;;;;12.38;7.05;;;15.10;99.90;;;;;;4811617;29;20043;-75
2021/06/22 05:52:46;;;;;;;12.82;10.18;;;15.40;99.90;;;;;;4825717;29;20058;-75
2021/06/22 05:55:20;;;;;;;14.85;9.35;;;15.60;99.90;;;;;;4802217;29;20065;-75
2021/06/22 05:57:50;;;;;;;13.38;8.18;;;15.80;99.90;;;;;;4785987;29;20784;-74
2021/06/22 06:00:19;;;;;;;14.45;7.57;;;15.90;99.90;;;;;;4825028;29;20062;-83
2021/06/22 06:02:46;;;;;;;13.10;7.28;;;16.10;99.80;;;;;;4839655;29;20050;-84
2021/06/22 06:05:13;;;;;;;13.95;7.13;;;16.10;99.40;;;;;;4787586;29;20038;-83
2021/06/22 06:07:40;;;;;;;13.57;7.47;;;16.10;98.40;;;;;;4821394;29;20050;-83
2021/06/22 06:10:08;;;;;;;10.85;6.88;;;15.90;98.50;;;;;;4824463;29;20054;-75
2021/06/22 06:12:34;;;;;;;11.55;7.22;;;16.00;99.00;;;;;;4811644;29;20059;-75
2021/06/22 06:15:01;;;;;;;14.23;7.20;;;16.10;98.70;;;;;;4812996;29;20038;-77
2021/06/22 06:17:27;;;;;;;11.55;7.18;;;16.20;98.10;;;;;;4792081;29;20043;-75
2021/06/22 06:19:54;;;;;;;13.73;7.93;;;16.40;98.30;;;;;;4809604;29;20053;-75
2021/06/22 06:22:21;;;;;;;19.25;13.43;;;16.60;98.00;;;;;;4809751;29;20066;-76
2021/06/22 06:24:48;;;;;;;18.23;8.43;;;16.90;97.40;;;;;;4810196;29;20065;-76
2021/06/22 06:27:17;;;;;;;12.15;7.50;;;17.10;96.60;;;;;;4806079;29;20046;-76
2021/06/22 06:29:57;;;;;;;16.55;11.10;;;17.20;96.30;;;;;;4822582;29;20034;-76
2021/06/22 06:32:24;;;;;;;14.50;8.68;;;17.40;95.50;;;;;;4776441;29;20085;-76
2021/06/22 06:34:50;;;;;;;12.00;7.32;;;17.50;95.00;;;;;;4808602;29;20057;-77
2021/06/22 06:37:17;;;;;;;12.23;8.15;;;17.50;95.20;;;;;;4793217;29;20049;-76
2021/06/22 06:39:43;;;;;;;12.30;7.28;;;17.60;93.90;;;;;;4807624;29;20387;-74
2021/06/22 06:42:10;;;;;;;9.82;6.10;;;17.50;94.20;;;;;;4780811;29;20402;-77
2021/06/22 06:44:37;;;;;;;10.88;6.60;;;17.70;94.40;;;;;;4812792;29;20422;-76
2021/06/22 06:47:05;;;;;;;11.20;7.43;;;18.00;94.40;;;;;;4807073;29;20482;-76
2021/06/22 06:49:35;;;;;;;6.55;5.80;;;18.30;94.00;;;;;;4800190;29;21689;-77
2021/06/22 06:52:03;;;;;;;11.43;6.60;;;18.40;93.50;;;;;;4797416;29;20388;-77
2021/06/22 06:54:30;;;;;;;8.45;6.90;;;18.70;92.80;;;;;;4806780;29;20053;-77
2021/06/22 06:56:57;;;;;;;9.20;7.18;;;18.80;92.60;;;;;;4805606;29;20479;-77
2021/06/22 06:59:24;;;;;;;12.82;7.22;;;18.80;92.10;;;;;;4806254;29;20057;-77
2021/06/22 07:01:54;;;;;;;12.25;8.27;;;18.80;91.60;;;;;;4803604;29;20054;-76
2021/06/22 07:04:20;;;;;;;13.50;8.27;;;18.80;90.80;;;;;;4789011;29;20145;-76
2021/06/22 07:06:47;;;;;;;12.20;8.02;;;18.80;90.00;;;;;;4798200;29;20513;-77
2021/06/22 07:09:14;;;;;;;14.15;8.43;;;18.80;87.90;;;;;;4786827;29;20042;-77
2021/06/22 07:11:41;;;;;;;14.00;8.57;;;18.90;87.30;;;;;;4805469;29;20506;-76
2021/06/22 07:14:08;;;;;;;12.93;7.55;;;19.00;87.50;;;;;;4822857;29;20406;-76
2021/06/22 07:16:38;;;;;;;15.23;7.10;;;19.10;86.50;;;;;;4798698;29;20608;-76
2021/06/22 07:19:05;;;;;;;15.18;8.98;;;19.20;86.40;;;;;;4806950;29;20046;-77
2021/06/22 07:21:32;;;;;;;8.50;7.00;;;19.10;85.00;;;;;;4776363;29;20051;-76
2021/06/22 07:23:58;;;;;;;14.07;8.60;;;19.00;85.50;;;;;;4793558;29;20046;-77
2021/06/22 07:26:25;;;;;;;12.60;8.30;;;18.90;85.80;;;;;;4814597;29;20047;-77
2021/06/22 07:28:52;;;;;;;15.95;11.48;;;18.90;87.20;;;;;;4807719;29;20051;-77
2021/06/22 07:31:19;;;;;;;13.70;8.77;;;18.90;86.60;;;;;;4809589;29;20047;-77
2021/06/22 07:33:49;;;;;;;13.27;8.20;;;18.90;87.20;;;;;;4804799;29;20057;-75
2021/06/22 07:36:16;;;;;;;11.60;8.75;;;18.70;86.20;;;;;;4786923;29;20049;-74
2021/06/22 07:38:43;;;;;;;13.30;9.65;;;18.60;86.70;;;;;;4802553;29;20045;-75
2021/06/22 07:41:10;;;;;;;13.23;9.27;;;18.50;86.60;;;;;;4796804;29;20042;-76
2021/06/22 07:43:36;;;;;;;14.45;10.43;;;18.40;86.50;;;;;;4811798;29;20066;-75
2021/06/22 07:46:03;;;;;;;12.50;9.68;;;18.10;85.00;;;;;;4786020;29;20046;-74
2021/06/22 07:48:29;;;;;;;13.90;10.93;;;17.90;86.20;;;;;;4801616;29;20422;-74
2021/06/22 07:50:57;;;;;;;14.63;8.70;;;17.90;86.10;;;;;;4813528;29;20888;-74
2021/06/22 07:53:23;;;;;;;13.45;8.73;;;17.90;86.70;;;;;;4808920;29;20058;-73
2021/06/22 07:55:50;;;;;;;12.65;8.63;;;17.90;86.80;;;;;;4822096;29;20038;-82
2021/06/22 07:58:16;;;;;;;13.77;8.60;;;17.90;87.60;;;;;;4823801;29;20061;-82
2021/06/22 08:00:46;;;;;;;13.15;8.52;;;18.10;87.10;;;;;;4827523;29;20053;-81
2021/06/22 08:03:18;;;;;;;11.05;7.75;;;18.20;87.50;;;;;;4798026;29;20046;-85
2021/06/22 08:05:46;;;;;;;12.15;7.45;;;18.40;86.50;;;;;;4839108;29;20050;-83
2021/06/22 08:08:16;;;;;;;15.73;10.15;;;18.50;86.90;;;;;;4829653;29;20046;-81
2021/06/22 08:10:47;;;;;;;11.07;9.70;;;18.60;85.60;;;;;;4826593;29;20049;-81
2021/06/22 08:13:14;;;;;;;10.73;8.00;;;18.60;84.00;;;;;;4829206;29;20038;-87
2021/06/22 08:15:41;;;;;;;12.25;9.07;;;18.60;84.00;;;;;;4825001;29;20049;-86
2021/06/22 08:18:08;;;;;;;12.50;8.02;;;18.60;84.00;;;;;;4827058;29;20042;-87
2021/06/22 08:20:36;;;;;;;13.25;8.63;;;18.60;84.30;;;;;;4823580;29;20049;-88
2021/06/22 08:23:04;;;;;;;11.15;8.00;;;18.60;85.30;;;;;;4822026;29;20046;-86
2021/06/22 08:25:31;;;;;;;14.98;10.98;;;18.70;86.00;;;;;;4828566;29;20050;-84
2021/06/22 08:27:58;;;;;;;12.73;9.85;;;18.90;86.10;;;;;;4830172;29;21308;-86
2021/06/22 08:30:26;;;;;;;11.20;8.65;;;18.90;85.60;;;;;;4821266;29;20047;-86
2021/06/22 08:32:54;;;;;;;10.15;6.97;;;18.90;86.10;;;;;;4794479;29;20398;-88
2021/06/22 08:35:20;;;;;;;12.27;8.82;;;18.90;85.60;;;;;;4821729;29;20106;-85
2021/06/22 08:37:47;;;;;;;10.25;7.97;;;18.90;85.30;;;;;;4837643;29;20043;-83
2021/06/22 08:40:14;;;;;;;11.45;7.05;;;18.90;85.00;;;;;;4821342;29;20042;-83
2021/06/22 08:42:41;;;;;;;11.57;9.15;;;19.00;85.40;;;;;;4806042;29;20038;-83
2021/06/22 08:45:14;;;;;;;13.18;8.02;;;19.20;85.00;;;;;;4822784;29;20046;-81
2021/06/22 08:47:41;;;;;;;11.10;7.35;;;19.20;83.20;;;;;;4831829;29;20050;-81
2021/06/22 08:50:09;;;;;;;12.50;8.02;;;19.40;81.90;;;;;;4792194;29;20422;-90
2021/06/22 08:52:36;;;;;;;12.18;7.70;;;19.50;80.20;;;;;;4817981;29;20139;-81
2021/06/22 08:55:05;;;;;;;10.48;7.43;;;19.50;78.80;;;;;;4819667;29;20041;-80
2021/06/22 08:57:33;;;;;;;8.45;5.38;;;19.50;79.40;;;;;;4812004;29;20038;-83
2021/06/22 08:59:59;;;;;;;9.13;6.55;;;19.60;80.30;;;;;;4822518;29;20058;-85
2021/06/22 09:02:28;;;;;;;11.43;7.63;;;19.80;79.30;;;;;;4818531;29;20042;-86
2021/06/22 09:04:58;;;;;;;10.18;6.47;;;19.90;79.40;;;;;;4795539;29;20046;-85
2021/06/22 09:07:50;;;;;;;10.25;6.07;;;20.10;78.30;;;;;;4807533;29;20050;-86
2021/06/22 09:10:25;;;;;;;8.77;6.38;;;20.20;78.50;;;;;;4802193;29;20926;-85
2021/06/22 09:12:53;;;;;;;12.73;6.47;;;20.40;76.60;;;;;;4816493;29;20070;-86
2021/06/22 09:15:29;;;;;;;12.65;7.68;;;20.50;75.80;;;;;;4816912;29;20042;-84
2021/06/22 09:17:57;;;;;;;9.85;6.07;;;20.70;74.40;;;;;;4815716;29;20050;-81
2021/06/22 09:20:38;;;;;;;11.25;6.75;;;20.60;73.70;;;;;;4821785;29;20046;-85
2021/06/22 09:23:18;;;;;;;12.40;5.83;;;20.70;73.00;;;;;;4823652;29;20065;-83
2021/06/22 09:25:46;;;;;;;10.70;7.13;;;20.60;73.30;;;;;;4813496;29;20042;-82
2021/06/22 09:28:15;;;;;;;12.32;8.07;;;20.50;73.10;;;;;;4813507;29;20043;-79
2021/06/22 09:30:47;;;;;;;9.85;6.60;;;20.60;71.90;;;;;;4814163;29;20412;-83
2021/06/22 09:33:45;;;;;;;11.93;7.50;;;20.70;73.30;;;;;;4812777;29;20030;-81
2021/06/22 09:36:13;;;;;;;8.35;5.85;;;21.10;71.10;;;;;;4813683;29;20054;-81
2021/06/22 09:38:43;;;;;;;11.48;6.05;;;21.20;70.50;;;;;;4809201;29;20038;-85
2021/06/22 09:41:17;;;;;;;9.63;6.63;;;21.30;70.00;;;;;;4804185;29;20895;-84
2021/06/22 09:44:08;;;;;;;12.57;7.80;;;21.40;69.70;;;;;;4796610;29;20049;-83
2021/06/22 09:46:43;;;;;;;9.15;6.00;;;21.60;70.10;;;;;;4816257;29;20042;-84
2021/06/22 09:49:23;;;;;;;7.47;5.70;;;21.80;69.30;;;;;;4796432;29;20042;-85
2021/06/22 09:52:01;;;;;;;10.07;6.40;;;22.00;68.70;;;;;;4808934;29;20523;-74
2021/06/22 09:54:30;;;;;;;8.07;6.07;;;22.10;67.60;;;;;;4825227;29;20057;-73
2021/06/22 09:57:12;;;;;;;10.75;7.47;;;21.90;67.40;;;;;;4789137;29;20494;-74
2021/06/22 09:59:49;;;;;;;9.45;7.30;;;21.60;67.60;;;;;;4798236;29;20049;-74
2021/06/22 10:02:17;;;;;;;10.75;7.07;;;21.40;67.70;;;;;;4824010;29;20050;-74
2021/06/22 10:04:48;;;;;;;9.98;6.25;;;21.20;68.50;;;;;;4804662;29;20482;-76
2021/06/22 10:07:17;;;;;;;8.00;6.57;;;21.20;69.40;;;;;;4789086;29;20042;-74
2021/06/22 10:09:53;;;;;;;8.32;6.20;;;21.40;68.70;;;;;;4800992;29;20046;-74
2021/06/22 10:12:22;;;;;;;7.78;5.47;;;21.60;67.50;;;;;;4794512;29;20051;-74
2021/06/22 10:14:52;;;;;;;10.15;5.55;;;21.80;66.80;;;;;;4795750;29;20049;-74
2021/06/22 10:17:22;;;;;;;8.00;5.00;;;22.00;65.00;;;;;;4818606;29;20049;-89
2021/06/22 10:19:54;;;;;;;8.85;4.85;;;22.20;64.30;;;;;;4811253;29;20034;-89
2021/06/22 10:22:23;;;;;;;9.70;5.60;;;22.30;63.90;;;;;;4790413;29;20055;-74
2021/06/22 10:24:50;;;;;;;9.30;6.47;;;22.30;63.10;;;;;;4805178;29;20054;-74
2021/06/22 10:27:19;;;;;;;7.38;5.32;;;22.30;63.40;;;;;;4805074;29;20066;-74
2021/06/22 10:29:51;;;;;;;8.13;4.70;;;22.30;63.20;;;;;;4815403;29;20053;-87
2021/06/22 10:32:20;;;;;;;10.18;6.82;;;22.50;63.80;;;;;;4822236;29;20081;-87
2021/06/22 10:34:48;;;;;;;7.10;4.50;;;22.60;63.90;;;;;;4832381;29;20776;-75
2021/06/22 10:37:23;;;;;;;8.07;5.18;;;22.70;64.50;;;;;;4775936;29;20038;-75
2021/06/22 10:40:20;;;;;;;7.75;6.15;;;22.70;63.50;;;;;;4806052;29;20058;-75
2021/06/22 10:42:58;;;;;;;7.65;4.75;;;22.80;62.80;;;;;;4807259;29;20516;-75
2021/06/22 10:45:25;;;;;;;9.63;4.72;;;22.70;61.30;;;;;;4798909;29;20037;-74
2021/06/22 10:47:56;;;;;;;6.85;4.60;;;22.70;61.20;;;;;;4779434;29;20395;-75
2021/06/22 10:50:23;;;;;;;7.97;5.28;;;22.60;62.60;;;;;;4805399;29;20062;-73
2021/06/22 10:52:58;;;;;;;9.85;6.78;;;22.80;62.30;;;;;;4816417;29;20379;-85
2021/06/22 10:55:27;;;;;;;7.32;5.40;;;23.20;61.10;;;;;;4814852;29;20058;-73
2021/06/22 10:58:06;;;;;;;5.10;3.95;;;23.40;58.20;;;;;;4810749;29;20050;-87
2021/06/22 11:00:42;;;;;;;7.70;4.75;;;23.60;59.10;;;;;;4809427;29;20046;-74
2021/06/22 11:03:22;;;;;;;7.60;5.05;;;23.80;55.50;;;;;;4814215;29;20528;-73
2021/06/22 11:06:10;;;;;;;6.88;4.60;;;23.80;56.00;;;;;;4829573;29;20042;-73
2021/06/22 11:08:38;;;;;;;7.13;4.63;;;23.90;56.60;;;;;;4793920;29;20046;-86
2021/06/22 11:11:08;;;;;;;7.10;4.40;;;24.20;58.30;;;;;;4809139;29;20065;-88
2021/06/22 11:14:05;;;;;;;6.50;4.75;;;24.40;57.00;;;;;;4812024;29;20046;-72
2021/06/22 11:16:33;;;;;;;7.00;4.40;;;24.20;56.70;;;;;;4812125;29;20047;-72
2021/06/22 11:19:06;;;;;;;4.65;3.25;;;24.40;57.50;;;;;;4809745;29;20046;-72
2021/06/22 11:21:43;;;;;;;5.78;4.45;;;25.00;57.40;;;;;;4813372;29;20034;-73
2021/06/22 11:24:16;;;;;;;6.47;5.00;;;25.40;56.10;;;;;;4818884;29;20043;-72
2021/06/22 11:26:46;;;;;;;8.63;3.95;;;25.70;54.60;;;;;;4812710;29;20455;-73
2021/06/22 11:29:14;;;;;;;6.00;3.35;;;26.10;52.30;;;;;;4812857;29;20050;-72
2021/06/22 11:31:53;;;;;;;4.97;3.25;;;26.20;51.60;;;;;;4813491;29;20058;-72
2021/06/22 11:34:32;;;;;;;5.18;3.70;;;26.20;50.10;;;;;;4807971;29;20054;-72
2021/06/22 11:37:19;;;;;;;6.60;2.90;;;26.20;50.10;;;;;;4807190;29;20054;-72
2021/06/22 11:40:10;;;;;;;9.30;4.85;;;26.20;50.20;;;;;;4809477;29;20158;-73
2021/06/22 11:42:38;;;;;;;4.15;3.72;;;26.20;49.70;;;;;;4803544;29;20046;-73
2021/06/22 11:45:14;;;;;;;5.03;4.00;;;26.40;48.50;;;;;;4810580;29;20043;-72
2021/06/22 11:47:43;;;;;;;6.75;3.03;;;26.50;48.30;;;;;;4805626;29;20720;-73
2021/06/22 11:50:10;;;;;;;5.53;3.25;;;26.50;47.40;;;;;;4805081;29;20045;-73
2021/06/22 11:52:50;;;;;;;6.18;3.42;;;26.70;48.40;;;;;;4808462;29;20042;-73
2021/06/22 11:55:21;;;;;;;5.97;3.22;;;26.90;47.70;;;;;;4805190;29;20050;-73
2021/06/22 11:57:53;;;;;;;4.53;3.00;;;27.20;47.90;;;;;;4805779;29;20042;-73
2021/06/22 12:00:25;;;;;;;5.55;3.00;;;27.10;45.30;;;;;;4811087;29;20057;-72
2021/06/22 12:02:57;;;;;;;6.28;2.92;;;26.60;46.10;;;;;;4792528;29;20038;-72
2021/06/22 12:05:26;;;;;;;4.25;2.30;;;26.80;48.50;;;;;;4791833;29;20049;-72
2021/06/22 12:08:04;;;;;;;3.55;2.22;;;27.30;46.60;;;;;;4805616;29;20058;-73
2021/06/22 12:10:40;;;;;;;5.68;2.38;;;27.80;44.90;;;;;;4819975;29;20063;-72
2021/06/22 12:13:08;;;;;;;6.22;2.42;;;27.90;44.00;;;;;;4807179;29;20054;-72
2021/06/22 12:15:40;;;;;;;5.65;2.10;;;28.20;44.70;;;;;;4805816;29;20192;-73
2021/06/22 12:18:07;;;;;;;4.88;2.10;;;28.40;44.60;;;;;;4806404;29;20508;-73
2021/06/22 12:20:40;;;;;;;7.57;2.22;;;28.60;43.40;;;;;;4805477;29;20050;-73
2021/06/22 12:23:11;;;;;;;4.40;2.13;;;28.50;42.80;;;;;;4799359;29;20062;-81
2021/06/22 12:25:50;;;;;;;4.32;1.83;;;28.70;43.20;;;;;;4796864;29;20394;-79
2021/06/22 12:28:17;;;;;;;5.82;2.38;;;28.70;43.00;;;;;;4811761;29;20059;-79
2021/06/22 12:30:50;;;;;;;4.53;2.20;;;29.00;42.20;;;;;;4817963;29;20055;-79
2021/06/22 12:33:19;;;;;;;4.75;2.63;;;29.40;41.80;;;;;;4827129;29;20065;-78
2021/06/22 12:35:51;;;;;;;4.47;2.08;;;29.50;42.30;;;;;;4816879;29;20035;-79
2021/06/22 12:38:19;;;;;;;4.53;1.70;;;29.00;41.70;;;;;;4813956;29;20053;-79
2021/06/22 12:40:47;;;;;;;3.55;1.48;;;28.20;43.10;;;;;;4816506;29;20051;-81
2021/06/22 12:43:17;;;;;;;4.10;1.70;;;27.60;43.40;;;;;;4807344;29;20042;-78
2021/06/22 12:45:46;;;;;;;3.08;1.70;;;27.40;43.90;;;;;;4811556;29;20041;-79
2021/06/22 12:48:13;;;;;;;2.55;1.00;;;27.40;43.40;;;;;;4827924;29;20042;-72
2021/06/22 12:50:41;;;;;;;3.72;1.95;;;27.60;43.80;;;;;;4783894;29;20043;-79
2021/06/22 12:53:10;;;;;;;2.15;1.33;;;28.20;42.40;;;;;;4809692;29;20047;-80
2021/06/22 12:55:43;;;;;;;6.75;1.80;;;28.80;41.20;;;;;;4808133;29;20619;-79